createdAt,value
2017-09-16T00:01:09.182Z,10.27
2017-09-16T00:03:36.927Z,14.03
2017-09-16T00:06:04.712Z,10.10
2017-09-16T00:08:32.526Z,8.67
2017-09-16T00:11:00.318Z,8.73
2017-09-16T00:13:28.101Z,9.77
2017-09-16T00:15:56.005Z,11.37
2017-09-16T00:18:24.564Z,9.00
2017-09-16T00:20:52.439Z,10.93
2017-09-16T00:23:20.257Z,11.50
2017-09-16T00:25:48.014Z,10.77
2017-09-16T00:28:15.747Z,10.83
2017-09-16T00:30:43.538Z,10.50
2017-09-16T00:33:12.093Z,12.50
2017-09-16T00:35:39.826Z,10.87
2017-09-16T00:38:07.592Z,10.80
2017-09-16T00:40:35.334Z,15.20
2017-09-16T00:43:04.328Z,13.60
2017-09-16T00:45:33.468Z,11.90
2017-09-16T00:48:01.267Z,14.17
2017-09-16T00:50:29.092Z,13.10
2017-09-16T00:52:56.886Z,14.07
2017-09-16T00:55:24.689Z,12.70
2017-09-16T00:57:52.487Z,14.57
2017-09-16T01:00:20.310Z,12.23
2017-09-16T01:02:48.035Z,12.70
2017-09-16T01:05:15.811Z,14.60
2017-09-16T01:07:43.495Z,14.20
2017-09-16T01:10:11.296Z,15.37
2017-09-16T01:12:39.093Z,15.83
2017-09-16T01:15:06.832Z,17.97
2017-09-16T01:17:34.628Z,15.67
2017-09-16T01:20:02.427Z,17.43
2017-09-16T01:22:30.236Z,17.90
2017-09-16T01:24:57.991Z,16.73
2017-09-16T01:27:25.837Z,18.43
2017-09-16T01:29:53.574Z,19.43
2017-09-16T01:32:21.332Z,18.10
2017-09-16T01:34:49.096Z,17.97
2017-09-16T01:37:16.892Z,18.93
2017-09-16T01:39:44.825Z,17.70
2017-09-16T01:42:12.608Z,17.07
2017-09-16T01:44:40.425Z,18.80
2017-09-16T01:47:08.169Z,20.80
2017-09-16T01:49:35.956Z,20.80
2017-09-16T01:52:03.700Z,19.23
2017-09-16T01:54:31.488Z,21.43
2017-09-16T01:56:59.272Z,20.03
2017-09-16T01:59:27.824Z,20.53
2017-09-16T02:01:55.653Z,22.07
2017-09-16T02:04:23.375Z,25.07
2017-09-16T02:06:51.156Z,20.70
2017-09-16T02:09:18.963Z,21.03
2017-09-16T02:11:46.689Z,21.67
2017-09-16T02:14:14.404Z,24.03
2017-09-16T02:16:42.267Z,23.17
2017-09-16T02:19:10.001Z,22.97
2017-09-16T02:21:37.746Z,25.47
2017-09-16T02:24:05.542Z,22.57
2017-09-16T02:26:33.275Z,23.10
2017-09-16T02:29:01.110Z,28.70
2017-09-16T02:31:28.985Z,23.63
2017-09-16T02:33:56.706Z,25.27
2017-09-16T02:36:24.429Z,24.23
2017-09-16T02:38:52.165Z,32.93
2017-09-16T02:41:19.948Z,28.40
2017-09-16T02:43:47.720Z,26.30
2017-09-16T02:46:15.468Z,26.93
2017-09-16T02:48:43.257Z,26.33
2017-09-16T02:51:11.053Z,26.80
2017-09-16T02:53:38.944Z,29.20
2017-09-16T02:56:06.687Z,26.90
2017-09-16T02:58:35.260Z,26.97
2017-09-16T03:01:03.034Z,29.63
2017-09-16T03:03:30.780Z,29.60
2017-09-16T03:05:58.589Z,26.60
2017-09-16T03:08:26.409Z,26.10
2017-09-16T03:10:54.234Z,26.40
2017-09-16T03:13:22.009Z,26.10
2017-09-16T03:15:49.798Z,25.83
2017-09-16T03:18:17.553Z,26.70
2017-09-16T03:20:45.280Z,28.27
2017-09-16T03:23:13.814Z,26.17
2017-09-16T03:25:41.586Z,30.80
2017-09-16T03:28:09.329Z,34.40
2017-09-16T03:30:37.059Z,29.83
2017-09-16T03:33:04.859Z,29.57
2017-09-16T03:35:32.797Z,29.40
2017-09-16T03:38:01.333Z,31.27
2017-09-16T03:40:29.065Z,31.27
2017-09-16T03:42:56.862Z,29.80
2017-09-16T03:45:24.658Z,28.50
2017-09-16T03:47:52.404Z,26.90
2017-09-16T03:50:20.129Z,28.00
2017-09-16T03:52:47.899Z,28.23
2017-09-16T03:55:15.722Z,25.37
2017-09-16T03:57:43.498Z,25.17
2017-09-16T04:00:11.280Z,25.90
2017-09-16T04:02:45.827Z,28.07
2017-09-16T04:05:13.630Z,26.33
2017-09-16T04:07:41.365Z,27.03
2017-09-16T04:10:09.180Z,27.13
2017-09-16T04:12:36.909Z,30.07
2017-09-16T04:15:04.698Z,31.60
2017-09-16T04:17:32.596Z,31.93
2017-09-16T04:20:00.344Z,29.87
2017-09-16T04:22:28.133Z,30.00
2017-09-16T04:24:56.000Z,27.53
2017-09-16T04:27:23.900Z,28.50
2017-09-16T04:29:52.485Z,25.80
2017-09-16T04:32:20.220Z,28.90
2017-09-16T04:34:47.947Z,24.67
2017-09-16T04:37:15.775Z,27.87
2017-09-16T04:39:43.492Z,26.10
2017-09-16T04:42:11.221Z,26.70
2017-09-16T04:44:39.039Z,27.13
2017-09-16T04:47:06.773Z,29.87
2017-09-16T04:49:34.516Z,26.20
2017-09-16T04:52:02.453Z,29.33
2017-09-16T04:54:30.224Z,27.67
2017-09-16T04:56:58.015Z,25.03
2017-09-16T04:59:26.702Z,26.63
2017-09-16T05:01:55.275Z,23.53
2017-09-16T05:04:23.062Z,26.23
2017-09-16T05:06:50.801Z,26.30
2017-09-16T05:09:18.591Z,24.23
2017-09-16T05:11:46.622Z,29.80
2017-09-16T05:14:14.377Z,24.67
2017-09-16T05:16:43.876Z,28.90
2017-09-16T05:19:15.416Z,28.90
2017-09-16T05:21:43.218Z,28.70
2017-09-16T05:24:10.998Z,28.60
2017-09-16T05:26:38.855Z,26.93
2017-09-16T05:29:06.610Z,27.80
2017-09-16T05:31:34.367Z,23.33
2017-09-16T05:34:02.194Z,28.40
2017-09-16T05:36:29.958Z,26.03
2017-09-16T05:38:57.687Z,24.93
2017-09-16T05:41:25.528Z,24.23
2017-09-16T05:43:57.277Z,26.33
2017-09-16T05:46:26.908Z,26.50
2017-09-16T05:48:54.704Z,22.70
2017-09-16T05:51:22.512Z,22.67
2017-09-16T05:53:50.328Z,24.50
2017-09-16T05:56:18.184Z,23.20
2017-09-16T05:58:46.029Z,22.30
2017-09-16T06:01:13.838Z,25.17
2017-09-16T06:03:41.871Z,20.17
2017-09-16T06:06:09.634Z,23.50
2017-09-16T06:08:37.523Z,26.73
2017-09-16T06:11:05.314Z,21.37
2017-09-16T06:13:33.075Z,20.80
2017-09-16T06:16:00.833Z,23.13
2017-09-16T06:18:28.574Z,19.20
2017-09-16T06:20:56.296Z,23.30
2017-09-16T06:23:24.165Z,22.80
2017-09-16T06:25:51.883Z,30.87
2017-09-16T06:28:19.608Z,23.90
2017-09-16T06:30:47.416Z,21.57
2017-09-16T06:33:15.272Z,18.13
2017-09-16T06:35:43.007Z,20.90
2017-09-16T06:38:10.740Z,20.00
2017-09-16T06:40:38.525Z,22.03
2017-09-16T06:43:06.312Z,23.42
2017-09-16T06:45:34.060Z,22.33
2017-09-16T06:48:01.782Z,18.90
2017-09-16T06:50:29.573Z,22.83
2017-09-16T06:52:57.440Z,19.10
2017-09-16T06:55:25.245Z,17.77
2017-09-16T06:57:52.984Z,19.60
2017-09-16T07:04:07.866Z,19.80
2017-09-16T07:07:03.286Z,19.43
2017-09-16T07:09:55.674Z,22.77
2017-09-16T07:18:37.610Z,23.70
2017-09-16T07:21:08.715Z,23.07
2017-09-16T07:29:19.506Z,17.27
2017-09-16T07:31:47.431Z,17.80
2017-09-16T07:34:15.239Z,18.57
2017-09-16T07:36:42.986Z,17.40
2017-09-16T07:39:11.471Z,22.67
2017-09-16T07:41:39.279Z,27.70
2017-09-16T07:44:07.000Z,25.77
2017-09-16T07:46:34.842Z,30.30
2017-09-16T07:49:02.584Z,34.53
2017-09-16T07:51:30.412Z,35.37
2017-09-16T07:53:58.147Z,39.50
2017-09-16T07:56:26.272Z,37.33
2017-09-16T07:58:54.083Z,35.77
2017-09-16T08:01:21.908Z,40.50
2017-09-16T08:03:49.724Z,38.00
2017-09-16T08:06:17.482Z,36.43
2017-09-16T08:08:45.298Z,35.10
2017-09-16T08:11:13.146Z,41.57
2017-09-16T08:13:40.929Z,38.93
2017-09-16T08:16:08.800Z,43.97
2017-09-16T08:18:36.659Z,37.17
2017-09-16T08:21:05.205Z,40.97
2017-09-16T08:23:33.094Z,35.07
2017-09-16T08:26:01.031Z,37.90
2017-09-16T08:28:28.753Z,37.23
2017-09-16T08:30:57.332Z,30.40
2017-09-16T08:33:25.214Z,35.50
2017-09-16T08:35:52.960Z,35.03
2017-09-16T08:38:20.803Z,44.57
2017-09-16T08:40:48.570Z,35.50
2017-09-16T08:43:16.374Z,30.13
2017-09-16T08:45:45.069Z,35.47
2017-09-16T08:48:13.629Z,32.17
2017-09-16T08:50:41.442Z,29.60
2017-09-16T08:53:09.325Z,26.63
2017-09-16T08:55:37.135Z,26.33
2017-09-16T08:58:05.153Z,27.97
2017-09-16T09:00:32.948Z,28.23
2017-09-16T09:03:02.036Z,26.93
2017-09-16T09:05:30.247Z,33.83
2017-09-16T09:07:58.330Z,28.93
2017-09-16T09:10:26.231Z,32.40
2017-09-16T09:12:54.056Z,31.63
2017-09-16T09:15:21.891Z,28.00
2017-09-16T09:17:49.681Z,33.40
2017-09-16T09:20:17.864Z,31.23
2017-09-16T09:22:45.747Z,25.63
2017-09-16T09:25:13.534Z,29.37
2017-09-16T09:27:41.445Z,27.60
2017-09-16T09:30:10.270Z,41.53
2017-09-16T09:32:37.998Z,36.50
2017-09-16T09:35:05.813Z,37.27
2017-09-16T09:37:33.595Z,34.37
2017-09-16T09:40:01.384Z,28.40
2017-09-16T09:42:29.165Z,30.97
2017-09-16T09:44:56.914Z,34.97
2017-09-16T09:47:24.636Z,30.07
2017-09-16T09:49:52.788Z,33.90
2017-09-16T09:52:20.568Z,32.43
2017-09-16T09:54:48.296Z,32.17
2017-09-16T09:57:16.120Z,27.90
2017-09-16T09:59:44.921Z,35.17
2017-09-16T10:02:12.800Z,29.00
2017-09-16T10:04:41.520Z,36.47
2017-09-16T10:07:09.289Z,29.43
2017-09-16T10:09:37.094Z,31.40
2017-09-16T10:12:05.322Z,34.50
2017-09-16T10:14:33.314Z,38.50
2017-09-16T10:17:01.144Z,33.50
2017-09-16T10:19:29.791Z,39.83
2017-09-16T10:21:57.612Z,30.40
2017-09-16T10:24:25.368Z,34.90
2017-09-16T10:26:55.105Z,36.87
2017-09-16T10:29:22.902Z,36.90
2017-09-16T10:31:50.623Z,34.13
2017-09-16T10:34:18.351Z,35.50
2017-09-16T10:36:46.131Z,38.93
2017-09-16T10:39:23.092Z,32.57
2017-09-16T10:41:50.969Z,34.90
2017-09-16T10:44:18.731Z,35.50
2017-09-16T10:46:46.541Z,33.67
2017-09-16T10:49:14.856Z,33.83
2017-09-16T10:51:43.498Z,36.60
2017-09-16T10:54:15.965Z,33.27
2017-09-16T10:56:45.895Z,32.27
2017-09-16T10:59:15.816Z,31.07
2017-09-16T11:01:45.893Z,33.13
2017-09-16T11:04:13.716Z,30.23
2017-09-16T11:06:41.779Z,34.93
2017-09-16T11:09:10.230Z,33.00
2017-09-16T11:11:38.565Z,33.93
2017-09-16T11:14:07.478Z,28.90
2017-09-16T11:16:36.330Z,30.00
2017-09-16T11:19:04.580Z,35.43
2017-09-16T11:21:32.915Z,30.70
2017-09-16T11:24:00.830Z,31.33
2017-09-16T11:26:29.643Z,29.27
2017-09-16T11:28:59.129Z,33.30
2017-09-16T11:31:27.700Z,30.10
2017-09-16T11:33:55.788Z,27.47
2017-09-16T11:36:24.401Z,28.83
2017-09-16T11:38:52.501Z,28.00
2017-09-16T11:41:24.574Z,34.20
2017-09-16T11:43:52.949Z,28.20
2017-09-16T11:46:21.913Z,30.33
2017-09-16T11:48:49.707Z,29.93
2017-09-16T11:51:18.245Z,28.27
2017-09-16T11:53:46.770Z,25.07
2017-09-16T11:57:06.331Z,25.13
2017-09-16T11:59:35.038Z,23.30
2017-09-16T13:11:56.669Z,17.70
2017-09-16T13:14:25.645Z,19.67
2017-09-16T13:16:53.416Z,20.20
2017-09-16T13:19:21.196Z,18.97
2017-09-16T13:21:48.949Z,16.67
2017-09-16T13:24:16.825Z,15.53
2017-09-16T13:26:45.176Z,17.20
2017-09-16T13:29:12.942Z,17.13
2017-09-16T13:31:40.866Z,17.37
2017-09-16T13:34:08.707Z,19.57
2017-09-16T13:36:36.569Z,22.47
2017-09-16T13:39:04.450Z,16.67
2017-09-16T13:41:32.216Z,17.30
2017-09-16T13:44:00.006Z,14.30
2017-09-16T13:46:27.902Z,16.10
2017-09-16T13:48:55.736Z,16.03
2017-09-16T13:51:24.245Z,15.73
2017-09-16T13:53:52.079Z,15.67
2017-09-16T13:56:21.698Z,15.70
2017-09-16T13:58:49.519Z,21.20
2017-09-16T14:01:17.308Z,16.70
2017-09-16T14:03:45.046Z,19.80
2017-09-16T14:06:12.833Z,13.40
2017-09-16T14:08:40.690Z,12.20
2017-09-16T14:11:08.476Z,13.77
2017-09-16T14:13:36.365Z,14.87
2017-09-16T14:16:04.170Z,13.47
2017-09-16T14:18:31.963Z,11.57
2017-09-16T14:21:00.991Z,11.70
2017-09-16T14:23:31.798Z,12.27
2017-09-16T14:26:00.486Z,11.87
2017-09-16T14:28:28.277Z,11.47
2017-09-16T14:30:56.115Z,9.27
2017-09-16T14:33:23.958Z,10.70
2017-09-16T14:35:51.821Z,9.70
2017-09-16T14:38:19.704Z,9.20
2017-09-16T14:40:47.503Z,14.13
2017-09-16T14:43:15.362Z,12.00
2017-09-16T14:45:43.200Z,9.00
2017-09-16T14:48:11.048Z,10.10
2017-09-16T14:50:39.651Z,9.97
2017-09-16T14:53:07.507Z,9.73
2017-09-16T14:55:36.134Z,9.73
2017-09-16T14:58:04.001Z,13.13
2017-09-16T15:00:31.872Z,9.40
2017-09-16T15:02:59.616Z,10.63
2017-09-16T15:05:27.345Z,11.43
2017-09-16T15:07:55.282Z,9.33
2017-09-16T15:10:23.070Z,8.90
2017-09-16T15:12:51.303Z,11.30
2017-09-16T15:15:19.220Z,10.47
2017-09-16T15:17:47.073Z,9.70
2017-09-16T15:20:14.908Z,9.67
2017-09-16T15:22:42.780Z,9.70
2017-09-16T15:25:10.506Z,10.37
2017-09-16T15:27:38.298Z,10.30
2017-09-16T15:30:06.139Z,7.93
2017-09-16T15:32:33.941Z,8.70
2017-09-16T15:35:01.744Z,8.70
2017-09-16T15:37:29.501Z,10.20
2017-09-16T15:39:57.283Z,9.17
2017-09-16T15:42:25.002Z,9.87
2017-09-16T15:44:53.630Z,9.90
2017-09-16T15:47:21.415Z,10.03
2017-09-16T15:49:49.183Z,9.80
2017-09-16T15:52:17.800Z,11.90
2017-09-16T15:54:45.533Z,10.90
2017-09-16T15:57:13.259Z,9.37
2017-09-16T15:59:41.189Z,10.30
2017-09-16T16:02:08.983Z,10.70
2017-09-16T16:04:36.769Z,10.10
2017-09-16T16:07:04.558Z,11.53
2017-09-16T16:09:32.393Z,11.50
2017-09-16T16:12:00.317Z,11.80
2017-09-16T16:14:28.158Z,10.73
2017-09-16T16:16:56.756Z,12.40
2017-09-16T16:19:24.859Z,12.97
2017-09-16T16:21:52.819Z,14.30
2017-09-16T16:24:21.549Z,13.23
2017-09-16T16:26:49.471Z,12.97
2017-09-16T16:29:17.327Z,13.70
2017-09-16T16:31:45.277Z,13.10
2017-09-16T16:34:14.034Z,13.30
2017-09-16T16:36:42.694Z,12.53
2017-09-16T16:39:10.582Z,11.80
2017-09-16T16:41:38.414Z,12.67
2017-09-16T16:44:08.459Z,13.30
2017-09-16T16:46:37.238Z,14.33
2017-09-16T16:49:05.163Z,13.50
2017-09-16T16:51:33.715Z,12.93
2017-09-16T16:54:02.312Z,13.90
2017-09-16T16:56:31.657Z,12.63
2017-09-16T16:59:06.399Z,13.40
2017-09-16T17:01:34.964Z,12.50
2017-09-16T17:04:02.723Z,12.70
2017-09-16T17:06:30.525Z,13.07
2017-09-16T17:08:58.316Z,13.17
2017-09-16T17:11:26.241Z,13.00
2017-09-16T17:13:54.076Z,13.60
2017-09-16T17:16:22.629Z,15.43
2017-09-16T17:18:50.451Z,13.80
2017-09-16T17:21:18.265Z,13.93
2017-09-16T17:23:46.010Z,15.57
2017-09-16T17:26:14.714Z,15.60
2017-09-16T17:28:42.518Z,14.60
2017-09-16T17:31:10.549Z,14.30
2017-09-16T17:33:38.438Z,15.57
2017-09-16T17:36:06.231Z,16.10
2017-09-16T17:38:34.004Z,14.40
2017-09-16T17:41:01.796Z,15.07
2017-09-16T17:43:29.590Z,14.13
2017-09-16T17:45:57.407Z,15.10
2017-09-16T17:48:25.148Z,16.37
2017-09-16T17:50:53.941Z,15.27
2017-09-16T17:53:22.353Z,15.73
2017-09-16T17:55:50.201Z,16.77
2017-09-16T17:58:18.076Z,20.53
2017-09-16T18:00:45.993Z,14.40
2017-09-16T18:03:14.421Z,16.93
2017-09-16T18:05:42.164Z,16.37
2017-09-16T18:08:09.966Z,16.13
2017-09-16T18:10:37.766Z,19.43
2017-09-16T18:13:05.572Z,18.77
2017-09-16T18:15:33.741Z,18.70
2017-09-16T18:18:01.546Z,15.40
2017-09-16T18:20:29.821Z,18.13
2017-09-16T18:22:57.615Z,18.37
2017-09-16T18:25:25.415Z,17.87
2017-09-16T18:27:53.221Z,19.57
2017-09-16T18:30:20.973Z,19.73
2017-09-16T18:32:48.906Z,19.83
2017-09-16T18:35:16.723Z,16.80
2017-09-16T18:37:44.469Z,16.10
2017-09-16T18:40:12.298Z,17.87
2017-09-16T18:42:40.031Z,16.53
2017-09-16T18:45:07.837Z,18.83
2017-09-16T18:47:37.322Z,17.40
2017-09-16T18:50:05.214Z,18.03
2017-09-16T18:52:32.952Z,20.13
2017-09-16T18:55:01.086Z,18.40
2017-09-16T18:57:29.037Z,19.03
2017-09-16T18:59:56.838Z,18.60
2017-09-16T19:02:24.997Z,17.43
2017-09-16T19:04:52.786Z,24.03
2017-09-16T19:07:20.541Z,18.87
2017-09-16T19:09:48.967Z,17.90
2017-09-16T19:12:17.256Z,22.13
2017-09-16T19:14:45.524Z,19.90
2017-09-16T19:17:14.196Z,20.80
2017-09-16T19:19:42.029Z,19.50
2017-09-16T19:22:10.556Z,20.37
2017-09-16T19:24:38.285Z,18.20
2017-09-16T19:27:06.757Z,19.87
2017-09-16T19:29:34.591Z,20.00
2017-09-16T19:32:03.105Z,19.43
2017-09-16T19:34:30.872Z,19.33
2017-09-16T19:36:58.943Z,19.00
2017-09-16T19:39:27.739Z,19.90
2017-09-16T19:41:56.280Z,24.50
2017-09-16T19:44:24.437Z,21.90
2017-09-16T19:46:52.932Z,20.00
2017-09-16T19:49:22.449Z,21.10
2017-09-16T19:51:50.471Z,20.53
2017-09-16T19:54:18.297Z,20.70
2017-09-16T19:56:46.275Z,21.17
2017-09-16T19:59:14.129Z,21.23
2017-09-16T20:01:43.440Z,21.40
2017-09-16T20:04:13.521Z,22.57
2017-09-16T20:06:41.317Z,21.50
2017-09-16T20:09:09.186Z,23.17
2017-09-16T20:11:37.238Z,23.83
2017-09-16T20:14:06.199Z,22.07
2017-09-16T20:16:34.078Z,21.53
2017-09-16T20:19:02.799Z,23.10
2017-09-16T20:21:32.256Z,22.40
2017-09-16T20:24:00.069Z,23.13
2017-09-16T20:26:27.902Z,25.23
2017-09-16T20:28:55.803Z,23.60
2017-09-16T20:31:23.662Z,21.17
2017-09-16T20:33:51.514Z,22.97
2017-09-16T20:36:19.400Z,22.50
2017-09-16T20:38:47.172Z,24.43
2017-09-16T20:41:15.146Z,22.73
2017-09-16T20:43:43.801Z,27.80
2017-09-16T20:46:11.780Z,25.83
2017-09-16T20:48:40.007Z,23.23
2017-09-16T20:51:07.830Z,25.90
2017-09-16T20:53:35.904Z,26.40
2017-09-16T20:56:03.676Z,24.03
2017-09-16T20:58:31.529Z,23.13
2017-09-16T21:00:59.357Z,22.57
2017-09-16T21:03:27.109Z,22.63
2017-09-16T21:05:54.842Z,24.80
2017-09-16T21:08:22.583Z,21.90
2017-09-16T21:10:50.320Z,21.93
2017-09-16T21:13:18.113Z,22.60
2017-09-16T21:15:45.908Z,20.83
2017-09-16T21:18:13.736Z,23.07
2017-09-16T21:20:41.692Z,23.23
2017-09-16T21:23:09.507Z,22.77
2017-09-16T21:25:37.321Z,21.97
2017-09-16T21:28:07.807Z,21.23
2017-09-16T21:30:35.750Z,23.00
2017-09-16T21:33:03.552Z,22.63
2017-09-16T21:35:31.346Z,21.97
2017-09-16T21:37:59.914Z,21.23
2017-09-16T21:40:27.821Z,24.37
2017-09-16T21:42:55.552Z,23.43
2017-09-16T21:45:23.297Z,25.50
2017-09-16T21:47:51.045Z,24.73
2017-09-16T21:50:18.790Z,23.63
2017-09-16T21:52:46.609Z,23.73
2017-09-16T21:55:14.495Z,21.93
2017-09-16T21:57:43.057Z,30.63
2017-09-16T22:00:10.874Z,22.90
2017-09-16T22:02:38.627Z,24.67
2017-09-16T22:05:06.447Z,21.43
2017-09-16T22:07:34.246Z,22.77
2017-09-16T22:10:02.078Z,20.00
2017-09-16T22:12:29.891Z,20.77
2017-09-16T22:18:18.850Z,14.93
2017-09-16T22:20:46.736Z,14.97
2017-09-16T22:23:14.548Z,9.30
2017-09-16T22:25:42.405Z,13.83
2017-09-16T22:28:10.307Z,12.27
2017-09-16T22:30:38.219Z,10.40
2017-09-16T22:33:06.937Z,11.10
2017-09-16T22:35:34.802Z,12.13
2017-09-16T22:38:02.687Z,18.30
2017-09-16T22:40:30.698Z,24.50
2017-09-16T22:42:58.604Z,22.83
2017-09-16T22:45:27.277Z,23.20
2017-09-16T22:47:55.884Z,22.60
2017-09-16T22:50:23.846Z,21.90
2017-09-16T22:52:51.796Z,21.07
2017-09-16T22:55:19.725Z,20.10
2017-09-16T22:57:47.626Z,18.03
2017-09-16T23:00:15.446Z,17.73
2017-09-16T23:02:43.337Z,16.17
2017-09-16T23:05:11.196Z,13.27
2017-09-16T23:07:39.135Z,10.30
2017-09-16T23:10:07.101Z,12.63
2017-09-16T23:12:35.708Z,8.33
2017-09-16T23:15:03.618Z,7.60
2017-09-16T23:17:32.175Z,9.33
2017-09-16T23:20:00.006Z,8.33
2017-09-16T23:22:28.666Z,13.37
2017-09-16T23:24:56.541Z,8.30
2017-09-16T23:27:24.264Z,16.07
2017-09-16T23:29:52.368Z,11.27
2017-09-16T23:32:20.202Z,10.80
2017-09-16T23:34:48.001Z,9.30
2017-09-16T23:37:15.852Z,9.50
2017-09-16T23:39:43.582Z,8.83
2017-09-16T23:42:11.372Z,14.00
2017-09-16T23:44:39.196Z,10.00
2017-09-16T23:47:07.008Z,8.37
2017-09-16T23:49:34.734Z,8.30
2017-09-16T23:52:02.544Z,12.80
2017-09-16T23:54:30.293Z,7.63
2017-09-16T23:56:58.793Z,10.20
2017-09-16T23:59:26.580Z,9.73
